createdAt,value
2018-07-08T00:01:01.339Z,15.40
2018-07-08T00:03:28.687Z,15.30
2018-07-08T00:05:57.023Z,15.30
2018-07-08T00:08:24.287Z,15.30
2018-07-08T00:10:59.848Z,15.30
2018-07-08T00:13:27.199Z,15.20
2018-07-08T00:15:54.536Z,15.00
2018-07-08T00:18:22.910Z,15.10
2018-07-08T00:20:51.575Z,14.80
2018-07-08T00:23:19.313Z,15.00
2018-07-08T00:25:46.601Z,15.00
2018-07-08T00:28:13.906Z,15.00
2018-07-08T00:30:41.219Z,15.00
2018-07-08T00:33:08.863Z,14.90
2018-07-08T00:38:03.544Z,14.90
2018-07-08T00:40:31.001Z,14.90
2018-07-08T00:42:58.364Z,14.80
2018-07-08T00:45:25.752Z,14.80
2018-07-08T00:47:53.078Z,14.70
2018-07-08T00:50:20.391Z,14.80
2018-07-08T00:52:47.711Z,14.70
2018-07-08T00:55:15.001Z,14.70
2018-07-08T00:57:42.271Z,14.70
2018-07-08T01:00:21.160Z,14.00
2018-07-08T01:05:15.704Z,14.60
2018-07-08T01:07:42.959Z,14.60
2018-07-08T01:10:10.300Z,14.60
2018-07-08T01:12:37.623Z,14.50
2018-07-08T01:15:05.317Z,14.40
2018-07-08T01:17:32.759Z,14.40
2018-07-08T01:20:00.027Z,14.30
2018-07-08T01:22:27.352Z,14.20
2018-07-08T01:25:04.839Z,13.50
2018-07-08T01:27:32.148Z,14.20
2018-07-08T01:29:59.419Z,12.90
2018-07-08T01:32:26.735Z,14.10
2018-07-08T01:34:54.082Z,14.10
2018-07-08T01:37:21.391Z,13.50
2018-07-08T01:39:48.743Z,14.10
2018-07-08T01:42:16.014Z,14.10
2018-07-08T01:44:43.273Z,14.10
2018-07-08T01:47:10.539Z,14.10
2018-07-08T01:49:37.831Z,14.10
2018-07-08T01:52:05.162Z,14.10
2018-07-08T01:54:32.645Z,14.10
2018-07-08T01:56:59.951Z,14.50
2018-07-08T01:59:27.200Z,14.10
2018-07-08T02:04:21.770Z,14.00
2018-07-08T02:06:49.086Z,14.00
2018-07-08T02:09:16.403Z,13.90
2018-07-08T02:11:43.726Z,13.90
2018-07-08T02:14:11.172Z,13.80
2018-07-08T02:16:38.561Z,13.70
2018-07-08T02:21:33.295Z,13.70
2018-07-08T02:24:00.595Z,13.80
2018-07-08T02:26:27.925Z,13.60
2018-07-08T02:28:55.328Z,13.40
2018-07-08T02:31:22.654Z,13.50
2018-07-08T02:33:49.951Z,13.50
2018-07-08T02:38:44.747Z,13.40
2018-07-08T02:41:12.074Z,13.50
2018-07-08T02:43:39.402Z,13.10
2018-07-08T02:46:06.687Z,13.30
2018-07-08T02:48:34.052Z,13.30
2018-07-08T02:51:01.452Z,13.20
2018-07-08T02:53:28.743Z,13.20
2018-07-08T02:55:56.078Z,13.20
2018-07-08T02:58:23.351Z,11.70
2018-07-08T03:00:50.591Z,13.20
2018-07-08T03:03:18.114Z,13.30
2018-07-08T03:05:45.406Z,13.20
2018-07-08T03:08:12.883Z,13.20
2018-07-08T03:10:40.134Z,13.20
2018-07-08T03:13:07.415Z,13.20
2018-07-08T03:18:02.039Z,13.20
2018-07-08T03:20:29.327Z,13.10
2018-07-08T03:22:56.655Z,13.00
2018-07-08T03:25:23.967Z,13.00
2018-07-08T03:27:52.045Z,13.00
2018-07-08T03:30:19.375Z,12.90
2018-07-08T03:32:46.675Z,13.00
2018-07-08T03:35:14.092Z,13.00
2018-07-08T03:37:41.499Z,13.00
2018-07-08T03:40:08.810Z,12.30
2018-07-08T03:42:36.185Z,12.90
2018-07-08T03:45:03.530Z,12.90
2018-07-08T03:47:30.878Z,12.80
2018-07-08T03:49:58.162Z,12.80
2018-07-08T03:52:25.482Z,12.50
2018-07-08T03:54:52.902Z,13.00
2018-07-08T03:57:20.163Z,11.70
2018-07-08T03:59:47.443Z,13.00
2018-07-08T04:02:14.691Z,13.10
2018-07-08T04:04:41.983Z,13.10
2018-07-08T04:07:09.314Z,13.10
2018-07-08T04:09:36.632Z,13.10
2018-07-08T04:12:03.928Z,13.20
2018-07-08T04:14:31.175Z,12.30
2018-07-08T04:16:58.516Z,13.20
2018-07-08T04:19:26.138Z,13.20
2018-07-08T04:24:20.679Z,13.40
2018-07-08T04:26:48.022Z,13.40
2018-07-08T04:34:10.019Z,13.60
2018-07-08T04:36:37.341Z,13.70
2018-07-08T04:39:06.349Z,13.70
2018-07-08T04:41:33.641Z,13.50
2018-07-08T04:44:01.420Z,13.80
2018-07-08T04:46:28.755Z,13.80
2018-07-08T04:48:56.051Z,13.80
2018-07-08T04:51:23.355Z,13.60
2018-07-08T04:53:50.621Z,13.80
2018-07-08T04:56:17.871Z,13.80
2018-07-08T05:01:12.419Z,13.90
2018-07-08T05:06:07.032Z,14.10
2018-07-08T05:08:34.381Z,14.20
2018-07-08T05:11:01.657Z,14.40
2018-07-08T05:13:28.904Z,14.00
2018-07-08T05:15:56.215Z,14.70
2018-07-08T05:20:50.923Z,14.90
2018-07-08T05:23:18.246Z,14.90
2018-07-08T05:25:45.548Z,15.10
2018-07-08T05:28:12.902Z,15.20
2018-07-08T05:30:40.183Z,15.30
2018-07-08T05:33:07.861Z,15.40
2018-07-08T05:35:35.162Z,15.50
2018-07-08T05:38:02.679Z,13.20
2018-07-08T05:40:29.995Z,15.90
2018-07-08T05:47:51.825Z,16.30
2018-07-08T05:50:19.255Z,16.90
2018-07-08T05:52:46.434Z,16.40
2018-07-08T05:55:13.740Z,16.50
2018-07-08T05:57:41.056Z,16.50
2018-07-08T06:02:35.707Z,16.60
2018-07-08T06:05:03.067Z,16.60
2018-07-08T06:07:30.335Z,17.10
2018-07-08T06:09:57.580Z,16.90
2018-07-08T06:12:24.890Z,17.10
2018-07-08T06:14:52.276Z,17.30
2018-07-08T06:17:19.594Z,17.20
2018-07-08T06:24:41.396Z,17.60
2018-07-08T06:27:08.691Z,17.60
2018-07-08T06:29:35.982Z,17.80
2018-07-08T06:32:03.662Z,17.60
2018-07-08T06:34:30.964Z,18.00
2018-07-08T06:36:58.240Z,18.20
2018-07-08T06:39:25.529Z,18.40
2018-07-08T06:41:52.844Z,18.40
2018-07-08T06:44:20.249Z,18.50
2018-07-08T06:46:47.572Z,18.60
2018-07-08T06:49:14.947Z,18.60
2018-07-08T06:51:42.231Z,18.70
2018-07-08T06:54:12.023Z,18.70
2018-07-08T06:56:39.791Z,19.20
2018-07-08T07:01:34.436Z,18.80
2018-07-08T07:04:01.756Z,18.90
2018-07-08T07:06:29.071Z,19.00
2018-07-08T07:08:56.383Z,19.10
2018-07-08T07:11:23.675Z,19.20
2018-07-08T07:13:51.278Z,19.20
2018-07-08T07:16:18.617Z,19.20
2018-07-08T07:18:45.914Z,19.50
2018-07-08T07:21:13.224Z,19.90
2018-07-08T07:23:40.551Z,20.30
2018-07-08T07:31:02.619Z,21.50
2018-07-08T07:33:30.041Z,21.60
2018-07-08T07:35:57.307Z,21.80
2018-07-08T07:38:24.622Z,21.90
2018-07-08T07:40:51.941Z,22.00
2018-07-08T07:43:19.526Z,22.30
2018-07-08T07:45:46.864Z,22.60
2018-07-08T07:50:41.554Z,22.90
2018-07-08T07:53:08.888Z,23.30
2018-07-08T07:55:36.552Z,24.00
2018-07-08T07:58:03.991Z,24.20
2018-07-08T08:00:31.239Z,24.50
2018-07-08T08:02:58.527Z,25.00
2018-07-08T08:05:25.812Z,25.60
2018-07-08T08:07:53.185Z,25.70
2018-07-08T08:10:20.594Z,25.50
2018-07-08T08:12:47.842Z,25.70
2018-07-08T08:15:15.163Z,26.40
2018-07-08T08:17:42.473Z,26.80
2018-07-08T08:20:09.743Z,26.80
2018-07-08T08:22:37.075Z,27.10
2018-07-08T08:25:04.360Z,27.10
2018-07-08T08:27:31.695Z,28.00
2018-07-08T08:29:59.013Z,27.40
2018-07-08T08:32:26.280Z,27.40
2018-07-08T08:35:09.287Z,26.90
2018-07-08T08:37:41.879Z,28.20
2018-07-08T08:40:09.971Z,28.70
2018-07-08T08:42:37.335Z,29.20
2018-07-08T08:45:05.867Z,29.50
2018-07-08T08:47:33.491Z,30.10
2018-07-08T08:50:00.757Z,30.70
2018-07-08T08:52:28.093Z,30.90
2018-07-08T08:54:55.717Z,31.90
2018-07-08T08:57:22.985Z,32.30
2018-07-08T08:59:50.210Z,32.80
2018-07-08T09:02:17.559Z,33.30
2018-07-08T09:04:45.273Z,33.50
2018-07-08T09:07:13.959Z,33.70
2018-07-08T09:09:41.259Z,34.00
2018-07-08T09:12:09.105Z,34.40
2018-07-08T09:40:16.897Z,36.20
2018-07-08T09:42:44.188Z,37.20
2018-07-08T09:45:11.547Z,37.00
2018-07-08T09:50:06.030Z,36.40
2018-07-08T09:52:33.268Z,36.40
2018-07-08T09:55:00.539Z,36.60
2018-07-08T09:57:27.819Z,36.70
2018-07-08T10:02:22.317Z,36.00
2018-07-08T10:04:49.583Z,36.80
2018-07-08T10:09:44.056Z,37.10
2018-07-08T10:12:11.315Z,36.60
2018-07-08T10:14:38.680Z,37.00
2018-07-08T10:17:05.942Z,37.90
2018-07-08T10:19:33.278Z,38.50
2018-07-08T10:22:00.485Z,39.60
2018-07-08T10:24:27.722Z,40.10
2018-07-08T10:27:05.092Z,39.90
2018-07-08T10:31:59.562Z,40.20
2018-07-08T10:34:26.831Z,39.70
2018-07-08T10:36:54.128Z,40.30
2018-07-08T10:39:21.373Z,41.30
2018-07-08T10:41:48.628Z,42.20
2018-07-08T10:44:15.871Z,42.10
2018-07-08T10:46:43.176Z,41.10
2018-07-08T10:49:10.585Z,40.20
2018-07-08T10:51:37.901Z,40.40
2018-07-08T10:54:05.596Z,41.10
2018-07-08T10:56:32.992Z,42.00
2018-07-08T10:59:00.288Z,42.40
2018-07-08T11:01:27.695Z,42.10
2018-07-08T11:03:54.968Z,42.40
2018-07-08T11:06:22.203Z,42.00
2018-07-08T11:08:49.480Z,42.20
2018-07-08T11:11:16.715Z,42.40
2018-07-08T11:13:43.995Z,42.30
2018-07-08T11:16:11.282Z,42.20
2018-07-08T11:18:38.599Z,42.70
2018-07-08T11:21:05.923Z,43.20
2018-07-08T11:23:33.155Z,43.80
2018-07-08T11:26:00.406Z,44.30
2018-07-08T11:30:54.884Z,44.20
2018-07-08T11:33:22.195Z,43.90
2018-07-08T11:38:16.692Z,42.80
2018-07-08T11:40:43.975Z,42.60
2018-07-08T11:43:11.234Z,43.10
2018-07-08T11:45:38.491Z,43.00
2018-07-08T11:48:05.729Z,43.20
2018-07-08T11:50:33.051Z,43.50
2018-07-08T11:55:27.595Z,44.10
2018-07-08T11:57:54.781Z,44.90
2018-07-08T12:00:22.034Z,45.40
2018-07-08T12:02:49.271Z,45.70
2018-07-08T12:07:43.792Z,44.50
2018-07-08T12:10:11.058Z,44.40
2018-07-08T12:12:38.311Z,42.40
2018-07-08T12:15:05.572Z,40.30
2018-07-08T12:17:33.249Z,38.20
2018-07-08T12:20:00.507Z,36.60
2018-07-08T12:22:27.762Z,35.30
2018-07-08T12:24:55.106Z,34.10
2018-07-08T12:27:22.370Z,33.30
2018-07-08T12:29:49.647Z,32.70
2018-07-08T12:32:16.919Z,32.20
2018-07-08T12:34:44.163Z,31.50
2018-07-08T12:37:11.405Z,31.00
2018-07-08T12:42:05.903Z,30.20
2018-07-08T12:44:33.215Z,30.00
2018-07-08T12:47:00.416Z,29.80
2018-07-08T12:49:27.987Z,29.60
2018-07-08T12:51:55.882Z,29.30
2018-07-08T12:54:23.160Z,28.40
2018-07-08T12:56:50.460Z,28.90
2018-07-08T12:59:17.706Z,28.70
2018-07-08T13:04:12.185Z,28.90
2018-07-08T13:06:39.488Z,29.00
2018-07-08T13:09:06.716Z,29.00
2018-07-08T13:11:34.003Z,29.00
2018-07-08T13:14:01.260Z,29.10
2018-07-08T13:16:28.507Z,29.10
2018-07-08T13:18:55.748Z,29.10
2018-07-08T13:21:22.979Z,29.00
2018-07-08T13:23:50.215Z,29.10
2018-07-08T13:26:17.474Z,29.10
2018-07-08T13:28:44.786Z,28.90
2018-07-08T13:31:12.035Z,28.90
2018-07-08T13:33:39.278Z,28.60
2018-07-08T13:36:06.544Z,28.60
2018-07-08T13:38:33.790Z,28.70
2018-07-08T13:41:01.007Z,28.70
2018-07-08T13:43:28.242Z,28.70
2018-07-08T13:45:55.521Z,28.80
2018-07-08T13:48:22.809Z,28.70
2018-07-08T13:50:50.055Z,28.70
2018-07-08T13:53:17.315Z,26.40
2018-07-08T13:55:44.639Z,25.10
2018-07-08T13:58:11.778Z,24.00
2018-07-08T14:00:39.036Z,23.70
2018-07-08T14:03:06.351Z,23.50
2018-07-08T14:05:33.602Z,23.70
2018-07-08T14:08:00.907Z,23.70
2018-07-08T14:10:28.816Z,23.60
2018-07-08T14:12:56.214Z,23.60
2018-07-08T14:15:23.466Z,23.50
2018-07-08T14:17:50.704Z,23.70
2018-07-08T14:22:45.313Z,24.20
2018-07-08T14:25:12.560Z,24.40
2018-07-08T14:27:39.862Z,23.20
2018-07-08T14:32:34.382Z,22.70
2018-07-08T14:35:01.703Z,22.80
2018-07-08T14:37:28.956Z,23.10
2018-07-08T14:39:56.425Z,23.50
2018-07-08T14:42:23.683Z,24.10
2018-07-08T14:44:51.020Z,24.60
2018-07-08T14:47:18.311Z,24.70
2018-07-08T14:49:45.772Z,25.10
2018-07-08T14:52:13.071Z,25.70
2018-07-08T14:54:40.323Z,25.80
2018-07-08T14:57:07.563Z,26.20
2018-07-08T15:04:29.682Z,26.20
2018-07-08T15:06:56.940Z,26.30
2018-07-08T15:11:51.463Z,26.50
2018-07-08T15:14:18.759Z,26.70
2018-07-08T15:16:46.009Z,26.80
2018-07-08T15:19:13.253Z,26.90
2018-07-08T15:24:08.048Z,26.90
2018-07-08T15:26:35.307Z,27.00
2018-07-08T15:29:02.557Z,27.20
2018-07-08T15:31:29.779Z,27.20
2018-07-08T15:33:57.054Z,27.40
2018-07-08T15:38:51.599Z,26.80
2018-07-08T15:41:18.850Z,26.70
2018-07-08T15:46:13.485Z,27.00
2018-07-08T15:51:08.088Z,26.90
2018-07-08T15:53:35.350Z,26.90
2018-07-08T15:56:02.958Z,26.60
2018-07-08T15:58:30.805Z,27.00
2018-07-08T16:01:02.386Z,26.40
2018-07-08T16:03:29.739Z,27.90
2018-07-08T16:05:57.168Z,27.10
2018-07-08T16:08:25.469Z,26.60
2018-07-08T16:11:08.168Z,27.30
2018-07-08T16:13:35.998Z,26.80
2018-07-08T16:16:04.226Z,26.70
2018-07-08T16:18:31.953Z,27.10
2018-07-08T16:21:01.184Z,27.40
2018-07-08T16:23:30.035Z,26.90
2018-07-08T16:25:57.371Z,27.00
2018-07-08T16:28:24.595Z,27.30
2018-07-08T16:30:52.044Z,27.60
2018-07-08T16:34:13.832Z,27.00
2018-07-08T16:36:41.136Z,27.10
2018-07-08T16:39:10.344Z,26.90
2018-07-08T16:41:37.667Z,27.00
2018-07-08T16:44:05.210Z,26.90
2018-07-08T16:46:32.498Z,27.00
2018-07-08T16:49:04.988Z,26.90
2018-07-08T16:53:59.698Z,26.70
2018-07-08T16:56:27.052Z,26.80
2018-07-08T16:58:54.380Z,26.70
2018-07-08T17:01:21.704Z,26.40
2018-07-08T17:03:49.000Z,26.50
2018-07-08T17:06:16.906Z,26.00
2018-07-08T17:13:39.050Z,26.40
2018-07-08T17:16:06.412Z,26.70
2018-07-08T17:18:33.727Z,26.60
2018-07-08T17:21:00.989Z,26.40
2018-07-08T17:23:28.392Z,26.40
2018-07-08T17:25:55.580Z,26.70
2018-07-08T17:28:22.967Z,26.80
2018-07-08T17:30:52.456Z,26.80
2018-07-08T17:33:19.798Z,26.50
2018-07-08T17:35:47.274Z,26.40
2018-07-08T17:38:15.591Z,26.80
2018-07-08T17:40:42.908Z,26.80
2018-07-08T17:43:11.339Z,26.70
2018-07-08T17:45:38.647Z,26.90
2018-07-08T17:48:06.159Z,26.70
2018-07-08T17:53:01.129Z,26.80
2018-07-08T17:55:28.424Z,25.70
2018-07-08T17:57:55.816Z,26.70
2018-07-08T18:00:23.507Z,27.00
2018-07-08T18:02:50.835Z,26.70
2018-07-08T18:05:18.171Z,26.30
2018-07-08T18:08:00.328Z,27.10
2018-07-08T18:10:27.779Z,26.70
2018-07-08T18:12:56.041Z,26.60
2018-07-08T18:15:23.757Z,26.30
2018-07-08T18:17:57.865Z,26.40
2018-07-08T18:20:25.287Z,25.60
2018-07-08T18:22:52.625Z,26.00
2018-07-08T18:25:19.958Z,26.10
2018-07-08T18:27:47.331Z,26.00
2018-07-08T18:30:14.587Z,25.80
2018-07-08T18:32:41.847Z,25.80
2018-07-08T18:35:09.111Z,25.50
2018-07-08T18:37:37.268Z,25.80
2018-07-08T18:40:04.534Z,25.80
2018-07-08T18:42:31.859Z,25.70
2018-07-08T18:44:59.086Z,25.70
2018-07-08T18:49:54.063Z,25.40
2018-07-08T18:52:21.501Z,25.20
2018-07-08T18:54:48.827Z,25.10
2018-07-08T18:57:16.118Z,24.90
2018-07-08T18:59:43.470Z,24.80
2018-07-08T19:02:10.715Z,24.60
2018-07-08T19:04:37.976Z,22.80
2018-07-08T19:07:12.767Z,24.30
2018-07-08T19:12:08.447Z,24.10
2018-07-08T19:14:35.824Z,23.70
2018-07-08T19:17:03.099Z,23.90
2018-07-08T19:19:30.843Z,20.70
2018-07-08T19:24:25.450Z,23.50
2018-07-08T19:26:52.708Z,23.40
2018-07-08T19:29:20.089Z,23.30
2018-07-08T19:31:49.768Z,23.20
2018-07-08T19:34:17.129Z,23.20
2018-07-08T19:36:44.410Z,23.00
2018-07-08T19:39:11.707Z,22.90
2018-07-08T19:44:38.523Z,22.80
2018-07-08T19:47:06.947Z,22.70
2018-07-08T19:49:34.288Z,22.70
2018-07-08T19:52:05.554Z,22.50
2018-07-08T19:54:51.790Z,22.80
2018-07-08T19:57:32.488Z,22.60
2018-07-08T19:59:59.857Z,22.60
2018-07-08T20:02:35.201Z,22.70
2018-07-08T20:05:07.612Z,23.50
2018-07-08T20:07:48.923Z,22.70
2018-07-08T20:10:16.115Z,21.70
2018-07-08T20:12:57.020Z,22.50
2018-07-08T20:17:52.995Z,22.40
2018-07-08T20:20:32.358Z,22.60
2018-07-08T20:23:00.861Z,22.40
2018-07-08T20:25:28.155Z,22.40
2018-07-08T20:27:55.626Z,22.30
2018-07-08T20:30:25.151Z,22.10
2018-07-08T20:32:52.495Z,22.10
2018-07-08T20:35:19.828Z,21.80
2018-07-08T20:40:14.514Z,22.00
2018-07-08T20:43:01.857Z,22.00
2018-07-08T20:45:29.186Z,22.00
2018-07-08T20:47:57.859Z,22.30
2018-07-08T20:50:25.195Z,21.90
2018-07-08T20:52:52.589Z,21.90
2018-07-08T20:55:20.200Z,21.60
2018-07-08T20:57:48.242Z,21.70
2018-07-08T21:00:15.601Z,21.70
2018-07-08T21:02:47.152Z,21.60
2018-07-08T21:05:14.695Z,21.60
2018-07-08T21:07:42.156Z,21.40
2018-07-08T21:10:09.548Z,21.50
2018-07-08T21:12:36.864Z,21.40
2018-07-08T21:15:04.739Z,21.40
2018-07-08T21:17:32.144Z,21.40
2018-07-08T21:19:59.435Z,21.80
2018-07-08T21:22:26.719Z,21.30
2018-07-08T21:27:22.931Z,21.30
2018-07-08T21:29:50.598Z,21.10
2018-07-08T21:32:18.535Z,21.20
2018-07-08T21:34:45.895Z,21.70
2018-07-08T21:37:13.197Z,21.10
2018-07-08T21:39:40.495Z,21.20
2018-07-08T21:42:07.795Z,20.80
2018-07-08T21:44:35.313Z,20.40
2018-07-08T21:47:02.903Z,20.60
2018-07-08T21:49:36.023Z,20.40
2018-07-08T21:52:03.321Z,20.40
2018-07-08T21:54:30.709Z,20.30
2018-07-08T21:56:58.670Z,20.30
2018-07-08T21:59:25.958Z,20.10
2018-07-08T22:01:59.647Z,20.10
2018-07-08T22:07:00.138Z,20.10
2018-07-08T22:09:27.400Z,20.10
2018-07-08T22:11:54.750Z,20.10
2018-07-08T22:16:49.411Z,20.10
2018-07-08T22:19:16.743Z,20.00
2018-07-08T22:21:44.429Z,20.00
2018-07-08T22:24:11.743Z,19.90
2018-07-08T22:26:39.069Z,19.90
2018-07-08T22:29:06.458Z,19.80
2018-07-08T22:31:33.849Z,19.70
2018-07-08T22:34:01.216Z,19.60
2018-07-08T22:36:28.588Z,19.40
2018-07-08T22:38:55.849Z,19.50
2018-07-08T22:41:23.240Z,19.60
2018-07-08T22:43:50.502Z,19.50
2018-07-08T22:46:17.844Z,19.40
2018-07-08T22:51:12.375Z,19.30
2018-07-08T22:53:39.730Z,19.50
2018-07-08T22:56:07.039Z,19.30
2018-07-08T22:58:34.343Z,19.20
2018-07-08T23:02:12.675Z,19.20
2018-07-08T23:04:39.938Z,19.20
2018-07-08T23:07:07.350Z,19.10
2018-07-08T23:09:34.662Z,19.00
2018-07-08T23:14:29.268Z,18.90
2018-07-08T23:16:56.594Z,18.80
2018-07-08T23:19:23.910Z,18.80
2018-07-08T23:21:51.243Z,18.80
2018-07-08T23:24:18.675Z,18.70
2018-07-08T23:26:45.960Z,18.00
2018-07-08T23:29:13.255Z,18.70
2018-07-08T23:31:40.564Z,18.60
2018-07-08T23:34:07.829Z,18.40
2018-07-08T23:36:35.110Z,18.50
2018-07-08T23:39:03.240Z,18.50
2018-07-08T23:41:30.559Z,18.40
2018-07-08T23:43:57.835Z,18.30
2018-07-08T23:46:25.278Z,18.30
2018-07-08T23:51:19.784Z,18.20
2018-07-08T23:53:47.130Z,18.10
2018-07-08T23:56:14.414Z,18.00
2018-07-08T23:58:42.075Z,17.90
